Deer Lodge (38S)
Deer Lodge, MT
Field Elevation: 4692
Lat: 49°23.27N  Long: 112°45.89W
CTAF/Unicom Freq: 120.0250
   
     For Weather-by-Phone, call 406-846-1177
Weather Advisories
2018-04-23   05:43 Z
Altimeter 30.17" Hg
Wind 340° @ 4 KT
Gusts 18 KT
Visibility 10 SM
Temperature 8° C (46° F)
Dewpoint -9° C (16° F)
Relative Humidity 28%
Density Altitude --
Condensation Altitude 13,300 feet
Wind Chill: 7° C (45° F)
Wind and Runways
Indicated Runway = 30
Headwind = 3 kt
Crosswind = 3 kt
History
 
 
 
More Info
NOAA Forecast
 
 
About Us
Belfort Instrument
 
 
FAA Disclaimer: The data displayed is for advisory purposes only and is not to be used for flight planning or operations. For official data, please call 406-846-1177 to hear the current automated AWOS voice message.
  METAR 38S 230543Z AUTO 34004G18KT 10 SM 08/M09 A3017